sensor_id;sensor_type;location;lat;lon;timestamp;P1;durP1;ratioP1;P2;durP2;ratioP2
51010;SDS011;37038;50.182;8.624;2023-05-25T00:01:52;15.10;;;8.13;;
51010;SDS011;37038;50.182;8.624;2023-05-25T00:04:40;15.98;;;8.48;;
51010;SDS011;37038;50.182;8.624;2023-05-25T00:07:28;14.80;;;8.52;;
51010;SDS011;37038;50.182;8.624;2023-05-25T00:10:16;16.73;;;8.95;;
51010;SDS011;37038;50.182;8.624;2023-05-25T00:13:04;17.70;;;8.65;;
51010;SDS011;37038;50.182;8.624;2023-05-25T00:15:52;18.63;;;8.65;;
51010;SDS011;37038;50.182;8.624;2023-05-25T00:18:40;22.10;;;9.43;;
51010;SDS011;37038;50.182;8.624;2023-05-25T00:21:29;18.67;;;9.20;;
51010;SDS011;37038;50.182;8.624;2023-05-25T00:24:17;23.35;;;10.52;;
51010;SDS011;37038;50.182;8.624;2023-05-25T00:27:04;17.23;;;8.80;;
51010;SDS011;37038;50.182;8.624;2023-05-25T00:29:55;17.17;;;9.23;;
51010;SDS011;37038;50.182;8.624;2023-05-25T00:32:43;24.23;;;10.30;;
51010;SDS011;37038;50.182;8.624;2023-05-25T00:35:30;17.27;;;9.32;;
51010;SDS011;37038;50.182;8.624;2023-05-25T00:38:18;20.92;;;9.85;;
51010;SDS011;37038;50.182;8.624;2023-05-25T00:41:06;18.60;;;9.82;;
51010;SDS011;37038;50.182;8.624;2023-05-25T00:43:54;16.75;;;10.13;;
51010;SDS011;37038;50.182;8.624;2023-05-25T00:46:49;23.33;;;10.60;;
51010;SDS011;37038;50.182;8.624;2023-05-25T00:49:39;22.65;;;11.00;;
51010;SDS011;37038;50.182;8.624;2023-05-25T00:52:27;24.10;;;12.45;;
51010;SDS011;37038;50.182;8.624;2023-05-25T00:55:15;26.38;;;11.85;;
51010;SDS011;37038;50.182;8.624;2023-05-25T00:58:06;24.30;;;11.82;;
51010;SDS011;37038;50.182;8.624;2023-05-25T01:00:54;21.13;;;12.05;;
51010;SDS011;37038;50.182;8.624;2023-05-25T01:03:45;19.45;;;12.23;;
51010;SDS011;37038;50.182;8.624;2023-05-25T01:06:41;22.77;;;11.48;;
51010;SDS011;37038;50.182;8.624;2023-05-25T01:09:32;28.55;;;11.90;;
51010;SDS011;37038;50.182;8.624;2023-05-25T01:12:28;21.25;;;11.27;;
51010;SDS011;37038;50.182;8.624;2023-05-25T01:15:16;21.15;;;11.05;;
51010;SDS011;37038;50.182;8.624;2023-05-25T01:18:04;23.23;;;11.98;;
51010;SDS011;37038;50.182;8.624;2023-05-25T01:20:57;21.30;;;10.80;;
51010;SDS011;37038;50.182;8.624;2023-05-25T01:29:55;18.40;;;11.95;;
51010;SDS011;37038;50.182;8.624;2023-05-25T01:32:48;20.33;;;11.68;;
51010;SDS011;37038;50.182;8.624;2023-05-25T01:35:37;29.40;;;11.75;;
51010;SDS011;37038;50.182;8.624;2023-05-25T01:38:27;26.35;;;12.20;;
51010;SDS011;37038;50.182;8.624;2023-05-25T01:41:15;26.05;;;13.40;;
51010;SDS011;37038;50.182;8.624;2023-05-25T01:44:03;22.63;;;12.32;;
51010;SDS011;37038;50.182;8.624;2023-05-25T01:46:56;26.42;;;12.43;;
51010;SDS011;37038;50.182;8.624;2023-05-25T01:49:59;27.73;;;11.90;;
51010;SDS011;37038;50.182;8.624;2023-05-25T01:53:01;23.50;;;12.68;;
51010;SDS011;37038;50.182;8.624;2023-05-25T01:58:57;20.55;;;12.10;;
51010;SDS011;37038;50.182;8.624;2023-05-25T02:01:48;23.60;;;12.13;;
51010;SDS011;37038;50.182;8.624;2023-05-25T02:04:40;26.85;;;12.77;;
51010;SDS011;37038;50.182;8.624;2023-05-25T02:07:28;23.13;;;12.35;;
51010;SDS011;37038;50.182;8.624;2023-05-25T02:10:16;26.50;;;11.82;;
51010;SDS011;37038;50.182;8.624;2023-05-25T02:13:04;17.05;;;11.15;;
51010;SDS011;37038;50.182;8.624;2023-05-25T02:15:52;24.23;;;12.82;;
51010;SDS011;37038;50.182;8.624;2023-05-25T02:18:40;24.33;;;12.68;;
51010;SDS011;37038;50.182;8.624;2023-05-25T02:21:30;22.35;;;12.32;;
51010;SDS011;37038;50.182;8.624;2023-05-25T02:24:18;23.45;;;12.30;;
51010;SDS011;37038;50.182;8.624;2023-05-25T02:27:12;24.48;;;12.10;;
51010;SDS011;37038;50.182;8.624;2023-05-25T02:30:01;21.98;;;12.80;;
51010;SDS011;37038;50.182;8.624;2023-05-25T02:32:48;24.10;;;11.05;;
51010;SDS011;37038;50.182;8.624;2023-05-25T02:35:36;24.42;;;12.63;;
51010;SDS011;37038;50.182;8.624;2023-05-25T02:38:24;21.13;;;12.15;;
51010;SDS011;37038;50.182;8.624;2023-05-25T02:41:12;19.67;;;11.73;;
51010;SDS011;37038;50.182;8.624;2023-05-25T02:44:01;23.30;;;12.40;;
51010;SDS011;37038;50.182;8.624;2023-05-25T02:46:49;26.55;;;13.55;;
51010;SDS011;37038;50.182;8.624;2023-05-25T02:49:36;25.17;;;13.70;;
51010;SDS011;37038;50.182;8.624;2023-05-25T02:52:24;28.15;;;14.45;;
51010;SDS011;37038;50.182;8.624;2023-05-25T02:55:12;27.50;;;15.15;;
51010;SDS011;37038;50.182;8.624;2023-05-25T02:58:02;26.08;;;14.68;;
51010;SDS011;37038;50.182;8.624;2023-05-25T03:00:50;26.77;;;14.43;;
51010;SDS011;37038;50.182;8.624;2023-05-25T03:03:38;30.85;;;16.38;;
51010;SDS011;37038;50.182;8.624;2023-05-25T03:06:25;24.23;;;14.50;;
51010;SDS011;37038;50.182;8.624;2023-05-25T03:09:16;21.35;;;13.82;;
51010;SDS011;37038;50.182;8.624;2023-05-25T03:12:04;23.90;;;15.02;;
51010;SDS011;37038;50.182;8.624;2023-05-25T03:14:52;26.70;;;15.43;;
51010;SDS011;37038;50.182;8.624;2023-05-25T03:17:39;35.55;;;15.30;;
51010;SDS011;37038;50.182;8.624;2023-05-25T03:20:27;27.52;;;15.40;;
51010;SDS011;37038;50.182;8.624;2023-05-25T03:23:15;29.08;;;16.55;;
51010;SDS011;37038;50.182;8.624;2023-05-25T03:26:03;24.77;;;14.77;;
51010;SDS011;37038;50.182;8.624;2023-05-25T03:28:51;30.77;;;14.20;;
51010;SDS011;37038;50.182;8.624;2023-05-25T03:31:39;24.17;;;14.50;;
51010;SDS011;37038;50.182;8.624;2023-05-25T03:34:27;29.23;;;15.00;;
51010;SDS011;37038;50.182;8.624;2023-05-25T03:37:15;25.00;;;14.50;;
51010;SDS011;37038;50.182;8.624;2023-05-25T03:40:03;19.20;;;12.52;;
51010;SDS011;37038;50.182;8.624;2023-05-25T03:42:51;25.20;;;12.95;;
51010;SDS011;37038;50.182;8.624;2023-05-25T03:45:39;24.60;;;13.70;;
51010;SDS011;37038;50.182;8.624;2023-05-25T03:48:27;24.98;;;13.82;;
51010;SDS011;37038;50.182;8.624;2023-05-25T03:51:15;30.00;;;14.07;;
51010;SDS011;37038;50.182;8.624;2023-05-25T03:54:02;27.55;;;13.68;;
51010;SDS011;37038;50.182;8.624;2023-05-25T03:56:50;24.50;;;14.25;;
51010;SDS011;37038;50.182;8.624;2023-05-25T03:59:38;23.35;;;14.05;;
51010;SDS011;37038;50.182;8.624;2023-05-25T04:02:25;27.50;;;15.00;;
51010;SDS011;37038;50.182;8.624;2023-05-25T04:05:13;21.95;;;12.95;;
51010;SDS011;37038;50.182;8.624;2023-05-25T04:08:01;27.75;;;14.55;;
51010;SDS011;37038;50.182;8.624;2023-05-25T04:10:49;20.02;;;13.18;;
51010;SDS011;37038;50.182;8.624;2023-05-25T04:13:37;23.20;;;11.98;;
51010;SDS011;37038;50.182;8.624;2023-05-25T04:16:27;24.45;;;13.27;;
51010;SDS011;37038;50.182;8.624;2023-05-25T04:19:15;22.70;;;12.45;;
51010;SDS011;37038;50.182;8.624;2023-05-25T04:22:02;21.08;;;12.55;;
51010;SDS011;37038;50.182;8.624;2023-05-25T04:24:50;16.83;;;11.63;;
51010;SDS011;37038;50.182;8.624;2023-05-25T04:27:38;20.30;;;12.07;;
51010;SDS011;37038;50.182;8.624;2023-05-25T04:30:28;24.42;;;12.93;;
51010;SDS011;37038;50.182;8.624;2023-05-25T04:33:17;21.30;;;12.40;;
51010;SDS011;37038;50.182;8.624;2023-05-25T04:36:05;24.42;;;11.32;;
51010;SDS011;37038;50.182;8.624;2023-05-25T04:38:56;14.70;;;10.60;;
51010;SDS011;37038;50.182;8.624;2023-05-25T04:41:43;18.27;;;10.05;;
51010;SDS011;37038;50.182;8.624;2023-05-25T04:44:32;20.23;;;9.75;;
51010;SDS011;37038;50.182;8.624;2023-05-25T04:47:21;22.27;;;10.98;;
51010;SDS011;37038;50.182;8.624;2023-05-25T04:50:11;18.20;;;10.43;;
51010;SDS011;37038;50.182;8.624;2023-05-25T04:52:58;21.67;;;10.65;;
51010;SDS011;37038;50.182;8.624;2023-05-25T04:55:46;15.65;;;9.00;;
51010;SDS011;37038;50.182;8.624;2023-05-25T04:58:35;15.90;;;10.05;;
51010;SDS011;37038;50.182;8.624;2023-05-25T05:01:25;16.83;;;9.55;;
51010;SDS011;37038;50.182;8.624;2023-05-25T05:04:23;18.13;;;9.07;;
51010;SDS011;37038;50.182;8.624;2023-05-25T05:07:10;18.15;;;9.65;;
51010;SDS011;37038;50.182;8.624;2023-05-25T05:09:58;18.92;;;9.63;;
51010;SDS011;37038;50.182;8.624;2023-05-25T05:12:46;18.05;;;9.20;;
51010;SDS011;37038;50.182;8.624;2023-05-25T05:15:36;18.27;;;9.05;;
51010;SDS011;37038;50.182;8.624;2023-05-25T05:18:23;15.07;;;8.73;;
51010;SDS011;37038;50.182;8.624;2023-05-25T05:21:11;22.58;;;8.43;;
51010;SDS011;37038;50.182;8.624;2023-05-25T05:23:59;17.38;;;8.68;;
51010;SDS011;37038;50.182;8.624;2023-05-25T05:26:46;14.93;;;9.00;;
51010;SDS011;37038;50.182;8.624;2023-05-25T05:29:41;13.63;;;8.15;;
51010;SDS011;37038;50.182;8.624;2023-05-25T05:32:28;15.90;;;8.68;;
51010;SDS011;37038;50.182;8.624;2023-05-25T05:35:16;16.58;;;8.68;;
51010;SDS011;37038;50.182;8.624;2023-05-25T05:38:09;19.45;;;8.40;;
51010;SDS011;37038;50.182;8.624;2023-05-25T05:40:57;17.83;;;8.55;;
51010;SDS011;37038;50.182;8.624;2023-05-25T05:43:44;12.77;;;7.75;;
51010;SDS011;37038;50.182;8.624;2023-05-25T05:46:32;14.05;;;7.68;;
51010;SDS011;37038;50.182;8.624;2023-05-25T05:49:20;20.00;;;7.95;;
51010;SDS011;37038;50.182;8.624;2023-05-25T05:52:11;15.77;;;7.85;;
51010;SDS011;37038;50.182;8.624;2023-05-25T05:54:59;13.93;;;7.60;;
51010;SDS011;37038;50.182;8.624;2023-05-25T05:57:47;13.35;;;7.68;;
51010;SDS011;37038;50.182;8.624;2023-05-25T06:00:34;15.93;;;8.15;;
51010;SDS011;37038;50.182;8.624;2023-05-25T06:03:22;15.25;;;7.55;;
51010;SDS011;37038;50.182;8.624;2023-05-25T06:06:11;13.00;;;7.13;;
51010;SDS011;37038;50.182;8.624;2023-05-25T06:08:59;17.50;;;8.20;;
51010;SDS011;37038;50.182;8.624;2023-05-25T06:11:49;13.75;;;8.73;;
51010;SDS011;37038;50.182;8.624;2023-05-25T06:14:40;13.93;;;7.75;;
51010;SDS011;37038;50.182;8.624;2023-05-25T06:17:31;14.02;;;7.55;;
51010;SDS011;37038;50.182;8.624;2023-05-25T06:20:23;15.02;;;7.95;;
51010;SDS011;37038;50.182;8.624;2023-05-25T06:23:13;15.95;;;8.27;;
51010;SDS011;37038;50.182;8.624;2023-05-25T06:26:17;16.80;;;8.35;;
51010;SDS011;37038;50.182;8.624;2023-05-25T06:29:08;18.25;;;8.88;;
51010;SDS011;37038;50.182;8.624;2023-05-25T06:31:55;12.50;;;7.93;;
51010;SDS011;37038;50.182;8.624;2023-05-25T06:34:44;15.63;;;8.32;;
51010;SDS011;37038;50.182;8.624;2023-05-25T06:37:31;19.13;;;7.07;;
51010;SDS011;37038;50.182;8.624;2023-05-25T06:40:21;16.05;;;7.07;;
51010;SDS011;37038;50.182;8.624;2023-05-25T06:43:11;13.10;;;6.93;;
51010;SDS011;37038;50.182;8.624;2023-05-25T06:45:59;12.93;;;7.22;;
51010;SDS011;37038;50.182;8.624;2023-05-25T06:48:49;13.57;;;8.07;;
51010;SDS011;37038;50.182;8.624;2023-05-25T06:51:38;13.02;;;8.45;;
51010;SDS011;37038;50.182;8.624;2023-05-25T06:54:26;14.88;;;7.78;;
51010;SDS011;37038;50.182;8.624;2023-05-25T06:57:16;18.42;;;8.93;;
51010;SDS011;37038;50.182;8.624;2023-05-25T07:00:05;15.68;;;8.15;;
51010;SDS011;37038;50.182;8.624;2023-05-25T07:02:57;12.55;;;8.02;;
51010;SDS011;37038;50.182;8.624;2023-05-25T07:05:45;13.20;;;6.40;;
51010;SDS011;37038;50.182;8.624;2023-05-25T07:08:34;12.70;;;7.50;;
51010;SDS011;37038;50.182;8.624;2023-05-25T07:11:25;15.10;;;7.40;;
51010;SDS011;37038;50.182;8.624;2023-05-25T07:14:15;12.50;;;7.47;;
51010;SDS011;37038;50.182;8.624;2023-05-25T07:17:07;11.48;;;6.90;;
51010;SDS011;37038;50.182;8.624;2023-05-25T07:19:59;14.60;;;7.32;;
51010;SDS011;37038;50.182;8.624;2023-05-25T07:22:51;14.48;;;7.15;;
51010;SDS011;37038;50.182;8.624;2023-05-25T07:25:41;13.07;;;6.88;;
51010;SDS011;37038;50.182;8.624;2023-05-25T07:28:32;12.13;;;6.97;;
51010;SDS011;37038;50.182;8.624;2023-05-25T07:31:22;13.80;;;6.82;;
51010;SDS011;37038;50.182;8.624;2023-05-25T07:34:15;12.32;;;6.63;;
51010;SDS011;37038;50.182;8.624;2023-05-25T07:37:05;11.65;;;7.53;;
51010;SDS011;37038;50.182;8.624;2023-05-25T07:39:55;14.00;;;7.03;;
51010;SDS011;37038;50.182;8.624;2023-05-25T07:42:45;15.57;;;7.18;;
51010;SDS011;37038;50.182;8.624;2023-05-25T07:45:36;12.75;;;6.60;;
51010;SDS011;37038;50.182;8.624;2023-05-25T07:48:28;13.68;;;6.85;;
51010;SDS011;37038;50.182;8.624;2023-05-25T07:51:19;11.02;;;6.47;;
51010;SDS011;37038;50.182;8.624;2023-05-25T07:54:14;11.80;;;5.88;;
51010;SDS011;37038;50.182;8.624;2023-05-25T07:57:03;10.27;;;5.68;;
51010;SDS011;37038;50.182;8.624;2023-05-25T07:59:53;10.50;;;5.45;;
51010;SDS011;37038;50.182;8.624;2023-05-25T08:02:45;11.25;;;6.32;;
51010;SDS011;37038;50.182;8.624;2023-05-25T08:05:36;8.75;;;5.15;;
51010;SDS011;37038;50.182;8.624;2023-05-25T08:08:27;9.57;;;5.07;;
51010;SDS011;37038;50.182;8.624;2023-05-25T08:11:22;8.48;;;5.20;;
51010;SDS011;37038;50.182;8.624;2023-05-25T08:14:15;8.63;;;5.18;;
51010;SDS011;37038;50.182;8.624;2023-05-25T08:17:08;7.40;;;4.75;;
51010;SDS011;37038;50.182;8.624;2023-05-25T08:20:00;10.68;;;5.18;;
51010;SDS011;37038;50.182;8.624;2023-05-25T08:22:53;12.85;;;4.82;;
51010;SDS011;37038;50.182;8.624;2023-05-25T08:25:44;9.45;;;5.13;;
51010;SDS011;37038;50.182;8.624;2023-05-25T08:28:34;12.65;;;6.05;;
51010;SDS011;37038;50.182;8.624;2023-05-25T08:31:24;12.00;;;5.78;;
51010;SDS011;37038;50.182;8.624;2023-05-25T08:34:14;13.45;;;6.28;;
51010;SDS011;37038;50.182;8.624;2023-05-25T08:37:04;8.35;;;4.72;;
51010;SDS011;37038;50.182;8.624;2023-05-25T08:39:54;7.95;;;4.78;;
51010;SDS011;37038;50.182;8.624;2023-05-25T08:42:43;7.25;;;4.30;;
51010;SDS011;37038;50.182;8.624;2023-05-25T08:45:34;13.27;;;5.07;;
51010;SDS011;37038;50.182;8.624;2023-05-25T08:48:33;11.98;;;5.32;;
51010;SDS011;37038;50.182;8.624;2023-05-25T08:51:31;9.52;;;4.60;;
51010;SDS011;37038;50.182;8.624;2023-05-25T08:54:28;6.10;;;4.32;;
51010;SDS011;37038;50.182;8.624;2023-05-25T08:57:31;8.68;;;4.97;;
51010;SDS011;37038;50.182;8.624;2023-05-25T09:00:47;10.52;;;5.32;;
51010;SDS011;37038;50.182;8.624;2023-05-25T09:03:43;9.65;;;4.93;;
51010;SDS011;37038;50.182;8.624;2023-05-25T09:06:40;10.70;;;5.25;;
51010;SDS011;37038;50.182;8.624;2023-05-25T09:09:53;9.60;;;5.15;;
51010;SDS011;37038;50.182;8.624;2023-05-25T09:12:45;7.32;;;4.75;;
51010;SDS011;37038;50.182;8.624;2023-05-25T09:15:39;6.93;;;4.15;;
51010;SDS011;37038;50.182;8.624;2023-05-25T09:18:31;7.95;;;4.80;;
51010;SDS011;37038;50.182;8.624;2023-05-25T09:21:24;6.07;;;4.45;;
51010;SDS011;37038;50.182;8.624;2023-05-25T09:24:16;12.63;;;4.75;;
51010;SDS011;37038;50.182;8.624;2023-05-25T09:27:08;7.75;;;4.60;;
51010;SDS011;37038;50.182;8.624;2023-05-25T09:30:00;8.00;;;3.78;;
51010;SDS011;37038;50.182;8.624;2023-05-25T09:32:52;11.97;;;4.53;;
51010;SDS011;37038;50.182;8.624;2023-05-25T09:35:45;7.40;;;4.22;;
51010;SDS011;37038;50.182;8.624;2023-05-25T09:38:40;7.13;;;4.00;;
51010;SDS011;37038;50.182;8.624;2023-05-25T09:41:33;7.15;;;3.60;;
51010;SDS011;37038;50.182;8.624;2023-05-25T09:44:24;7.80;;;3.53;;
51010;SDS011;37038;50.182;8.624;2023-05-25T09:47:17;4.90;;;3.53;;
51010;SDS011;37038;50.182;8.624;2023-05-25T09:50:08;5.97;;;3.83;;
51010;SDS011;37038;50.182;8.624;2023-05-25T09:52:59;4.70;;;3.22;;
51010;SDS011;37038;50.182;8.624;2023-05-25T09:55:50;7.25;;;3.72;;
51010;SDS011;37038;50.182;8.624;2023-05-25T09:58:41;6.22;;;3.70;;
51010;SDS011;37038;50.182;8.624;2023-05-25T10:01:31;8.48;;;3.95;;
51010;SDS011;37038;50.182;8.624;2023-05-25T10:04:24;5.70;;;3.40;;
51010;SDS011;37038;50.182;8.624;2023-05-25T10:07:16;5.75;;;3.65;;
51010;SDS011;37038;50.182;8.624;2023-05-25T10:10:06;7.30;;;4.10;;
51010;SDS011;37038;50.182;8.624;2023-05-25T10:13:00;5.70;;;3.80;;
51010;SDS011;37038;50.182;8.624;2023-05-25T10:15:54;7.00;;;3.70;;
51010;SDS011;37038;50.182;8.624;2023-05-25T10:21:57;9.63;;;3.55;;
51010;SDS011;37038;50.182;8.624;2023-05-25T10:25:03;7.15;;;3.63;;
51010;SDS011;37038;50.182;8.624;2023-05-25T10:31:16;8.20;;;3.72;;
51010;SDS011;37038;50.182;8.624;2023-05-25T10:34:12;3.97;;;3.53;;
51010;SDS011;37038;50.182;8.624;2023-05-25T10:37:04;6.53;;;3.85;;
51010;SDS011;37038;50.182;8.624;2023-05-25T10:39:57;5.57;;;3.85;;
51010;SDS011;37038;50.182;8.624;2023-05-25T10:42:49;5.00;;;3.58;;
51010;SDS011;37038;50.182;8.624;2023-05-25T10:45:39;9.10;;;4.18;;
51010;SDS011;37038;50.182;8.624;2023-05-25T10:48:38;9.73;;;4.57;;
51010;SDS011;37038;50.182;8.624;2023-05-25T10:51:42;5.38;;;3.88;;
51010;SDS011;37038;50.182;8.624;2023-05-25T10:54:45;6.88;;;4.47;;
51010;SDS011;37038;50.182;8.624;2023-05-25T10:57:40;5.75;;;3.78;;
51010;SDS011;37038;50.182;8.624;2023-05-25T11:00:30;8.80;;;3.78;;
51010;SDS011;37038;50.182;8.624;2023-05-25T11:03:46;5.60;;;3.65;;
51010;SDS011;37038;50.182;8.624;2023-05-25T11:09:56;4.88;;;3.53;;
51010;SDS011;37038;50.182;8.624;2023-05-25T11:12:50;7.78;;;3.95;;
51010;SDS011;37038;50.182;8.624;2023-05-25T11:16:11;6.88;;;3.90;;
51010;SDS011;37038;50.182;8.624;2023-05-25T11:19:13;8.15;;;3.70;;
51010;SDS011;37038;50.182;8.624;2023-05-25T11:22:15;6.70;;;3.83;;
51010;SDS011;37038;50.182;8.624;2023-05-25T11:28:32;5.97;;;3.40;;
51010;SDS011;37038;50.182;8.624;2023-05-25T11:31:33;5.50;;;3.70;;
51010;SDS011;37038;50.182;8.624;2023-05-25T11:34:30;6.88;;;3.60;;
51010;SDS011;37038;50.182;8.624;2023-05-25T11:37:21;9.35;;;3.92;;
51010;SDS011;37038;50.182;8.624;2023-05-25T11:40:21;5.07;;;3.60;;
51010;SDS011;37038;50.182;8.624;2023-05-25T11:43:17;6.45;;;4.13;;
51010;SDS011;37038;50.182;8.624;2023-05-25T11:46:10;7.40;;;3.90;;
51010;SDS011;37038;50.182;8.624;2023-05-25T11:49:03;6.20;;;3.78;;
51010;SDS011;37038;50.182;8.624;2023-05-25T11:51:53;7.07;;;3.88;;
51010;SDS011;37038;50.182;8.624;2023-05-25T11:54:48;7.13;;;4.25;;
51010;SDS011;37038;50.182;8.624;2023-05-25T11:57:40;7.53;;;4.50;;
51010;SDS011;37038;50.182;8.624;2023-05-25T12:00:30;4.90;;;3.50;;
51010;SDS011;37038;50.182;8.624;2023-05-25T12:03:29;6.43;;;3.72;;
51010;SDS011;37038;50.182;8.624;2023-05-25T12:06:29;7.97;;;4.05;;
51010;SDS011;37038;50.182;8.624;2023-05-25T12:09:27;6.13;;;4.70;;
51010;SDS011;37038;50.182;8.624;2023-05-25T12:12:20;6.75;;;3.90;;
51010;SDS011;37038;50.182;8.624;2023-05-25T12:15:10;6.80;;;3.85;;
51010;SDS011;37038;50.182;8.624;2023-05-25T12:18:23;5.45;;;3.85;;
51010;SDS011;37038;50.182;8.624;2023-05-25T12:21:15;5.43;;;3.83;;
51010;SDS011;37038;50.182;8.624;2023-05-25T12:24:11;6.57;;;3.55;;
51010;SDS011;37038;50.182;8.624;2023-05-25T12:27:02;5.60;;;3.00;;
51010;SDS011;37038;50.182;8.624;2023-05-25T12:29:53;5.32;;;3.67;;
51010;SDS011;37038;50.182;8.624;2023-05-25T12:32:57;6.28;;;3.50;;
51010;SDS011;37038;50.182;8.624;2023-05-25T12:35:53;6.93;;;4.13;;
51010;SDS011;37038;50.182;8.624;2023-05-25T12:38:56;9.05;;;3.97;;
51010;SDS011;37038;50.182;8.624;2023-05-25T12:41:49;10.32;;;3.70;;
51010;SDS011;37038;50.182;8.624;2023-05-25T12:44:45;7.30;;;4.15;;
51010;SDS011;37038;50.182;8.624;2023-05-25T12:47:50;6.22;;;3.67;;
51010;SDS011;37038;50.182;8.624;2023-05-25T12:50:57;9.40;;;4.20;;
51010;SDS011;37038;50.182;8.624;2023-05-25T12:53:50;8.07;;;3.90;;
51010;SDS011;37038;50.182;8.624;2023-05-25T12:56:53;5.40;;;3.72;;
51010;SDS011;37038;50.182;8.624;2023-05-25T12:59:54;7.88;;;4.25;;
51010;SDS011;37038;50.182;8.624;2023-05-25T13:02:47;6.22;;;3.95;;
51010;SDS011;37038;50.182;8.624;2023-05-25T13:05:43;7.30;;;4.32;;
51010;SDS011;37038;50.182;8.624;2023-05-25T13:08:37;5.40;;;3.78;;
51010;SDS011;37038;50.182;8.624;2023-05-25T13:11:27;8.30;;;4.25;;
51010;SDS011;37038;50.182;8.624;2023-05-25T13:14:21;9.90;;;4.10;;
51010;SDS011;37038;50.182;8.624;2023-05-25T13:17:16;7.55;;;4.28;;
51010;SDS011;37038;50.182;8.624;2023-05-25T13:20:10;5.50;;;4.00;;
51010;SDS011;37038;50.182;8.624;2023-05-25T13:23:03;5.75;;;3.97;;
51010;SDS011;37038;50.182;8.624;2023-05-25T13:25:57;6.50;;;4.00;;
51010;SDS011;37038;50.182;8.624;2023-05-25T13:28:47;5.30;;;4.63;;
51010;SDS011;37038;50.182;8.624;2023-05-25T13:31:40;5.95;;;4.20;;
51010;SDS011;37038;50.182;8.624;2023-05-25T13:34:34;8.88;;;4.53;;
51010;SDS011;37038;50.182;8.624;2023-05-25T13:37:30;7.53;;;3.65;;
51010;SDS011;37038;50.182;8.624;2023-05-25T13:40:23;6.65;;;4.00;;
51010;SDS011;37038;50.182;8.624;2023-05-25T13:43:16;6.53;;;4.20;;
51010;SDS011;37038;50.182;8.624;2023-05-25T13:46:07;6.95;;;4.50;;
51010;SDS011;37038;50.182;8.624;2023-05-25T13:49:13;8.15;;;4.65;;
51010;SDS011;37038;50.182;8.624;2023-05-25T13:52:07;4.63;;;3.95;;
51010;SDS011;37038;50.182;8.624;2023-05-25T13:54:57;4.90;;;3.95;;
51010;SDS011;37038;50.182;8.624;2023-05-25T13:57:48;8.88;;;4.15;;
51010;SDS011;37038;50.182;8.624;2023-05-25T14:00:39;8.60;;;4.25;;
51010;SDS011;37038;50.182;8.624;2023-05-25T14:03:31;12.63;;;4.60;;
51010;SDS011;37038;50.182;8.624;2023-05-25T14:06:24;7.15;;;4.53;;
51010;SDS011;37038;50.182;8.624;2023-05-25T14:09:14;7.57;;;4.85;;
51010;SDS011;37038;50.182;8.624;2023-05-25T14:12:05;6.93;;;4.88;;
51010;SDS011;37038;50.182;8.624;2023-05-25T14:14:55;7.15;;;4.75;;
51010;SDS011;37038;50.182;8.624;2023-05-25T14:17:47;10.35;;;4.78;;
51010;SDS011;37038;50.182;8.624;2023-05-25T14:20:41;9.20;;;4.50;;
51010;SDS011;37038;50.182;8.624;2023-05-25T14:23:31;7.25;;;4.80;;
51010;SDS011;37038;50.182;8.624;2023-05-25T14:26:23;6.57;;;3.95;;
51010;SDS011;37038;50.182;8.624;2023-05-25T14:29:14;10.27;;;4.40;;
51010;SDS011;37038;50.182;8.624;2023-05-25T14:32:05;7.35;;;4.80;;
51010;SDS011;37038;50.182;8.624;2023-05-25T14:34:54;10.38;;;4.78;;
51010;SDS011;37038;50.182;8.624;2023-05-25T14:37:43;7.47;;;4.55;;
51010;SDS011;37038;50.182;8.624;2023-05-25T14:40:38;10.68;;;5.25;;
51010;SDS011;37038;50.182;8.624;2023-05-25T14:43:28;6.13;;;4.60;;
51010;SDS011;37038;50.182;8.624;2023-05-25T14:46:19;12.25;;;5.13;;
51010;SDS011;37038;50.182;8.624;2023-05-25T14:49:11;7.95;;;4.60;;
51010;SDS011;37038;50.182;8.624;2023-05-25T14:52:01;10.13;;;5.05;;
51010;SDS011;37038;50.182;8.624;2023-05-25T14:54:51;7.57;;;4.75;;
51010;SDS011;37038;50.182;8.624;2023-05-25T14:57:40;8.00;;;4.63;;
51010;SDS011;37038;50.182;8.624;2023-05-25T15:00:31;5.47;;;4.18;;
51010;SDS011;37038;50.182;8.624;2023-05-25T15:03:19;8.10;;;4.50;;
51010;SDS011;37038;50.182;8.624;2023-05-25T15:06:10;7.47;;;4.75;;
51010;SDS011;37038;50.182;8.624;2023-05-25T15:09:00;8.25;;;4.72;;
51010;SDS011;37038;50.182;8.624;2023-05-25T15:11:50;9.10;;;5.05;;
51010;SDS011;37038;50.182;8.624;2023-05-25T15:14:42;7.73;;;4.60;;
51010;SDS011;37038;50.182;8.624;2023-05-25T15:17:32;8.23;;;5.13;;
51010;SDS011;37038;50.182;8.624;2023-05-25T15:20:24;6.32;;;4.35;;
51010;SDS011;37038;50.182;8.624;2023-05-25T15:23:15;8.63;;;4.90;;
51010;SDS011;37038;50.182;8.624;2023-05-25T15:26:07;9.32;;;5.05;;
51010;SDS011;37038;50.182;8.624;2023-05-25T15:28:58;7.18;;;4.35;;
51010;SDS011;37038;50.182;8.624;2023-05-25T15:31:50;7.50;;;4.57;;
51010;SDS011;37038;50.182;8.624;2023-05-25T15:34:45;7.95;;;4.82;;
51010;SDS011;37038;50.182;8.624;2023-05-25T15:37:36;8.02;;;4.60;;
51010;SDS011;37038;50.182;8.624;2023-05-25T15:40:26;8.40;;;4.45;;
51010;SDS011;37038;50.182;8.624;2023-05-25T15:43:18;6.75;;;4.40;;
51010;SDS011;37038;50.182;8.624;2023-05-25T15:46:08;8.82;;;5.30;;
51010;SDS011;37038;50.182;8.624;2023-05-25T15:49:00;6.38;;;4.53;;
51010;SDS011;37038;50.182;8.624;2023-05-25T15:52:03;7.50;;;4.80;;
51010;SDS011;37038;50.182;8.624;2023-05-25T15:54:52;6.88;;;4.25;;
51010;SDS011;37038;50.182;8.624;2023-05-25T15:57:42;9.38;;;4.90;;
51010;SDS011;37038;50.182;8.624;2023-05-25T16:00:34;9.50;;;4.93;;
51010;SDS011;37038;50.182;8.624;2023-05-25T16:03:25;12.38;;;5.25;;
51010;SDS011;37038;50.182;8.624;2023-05-25T16:06:16;8.85;;;4.65;;
51010;SDS011;37038;50.182;8.624;2023-05-25T16:09:06;6.68;;;4.80;;
51010;SDS011;37038;50.182;8.624;2023-05-25T16:11:56;8.55;;;5.30;;
51010;SDS011;37038;50.182;8.624;2023-05-25T16:14:46;8.13;;;4.97;;
51010;SDS011;37038;50.182;8.624;2023-05-25T16:17:37;8.38;;;5.28;;
51010;SDS011;37038;50.182;8.624;2023-05-25T16:20:27;6.88;;;5.22;;
51010;SDS011;37038;50.182;8.624;2023-05-25T16:23:17;13.27;;;5.55;;
51010;SDS011;37038;50.182;8.624;2023-05-25T16:26:08;7.07;;;5.25;;
51010;SDS011;37038;50.182;8.624;2023-05-25T16:28:58;8.73;;;5.35;;
51010;SDS011;37038;50.182;8.624;2023-05-25T16:31:50;7.18;;;4.57;;
51010;SDS011;37038;50.182;8.624;2023-05-25T16:34:41;8.32;;;5.45;;
51010;SDS011;37038;50.182;8.624;2023-05-25T16:37:31;8.90;;;5.10;;
51010;SDS011;37038;50.182;8.624;2023-05-25T16:40:23;7.53;;;5.13;;
51010;SDS011;37038;50.182;8.624;2023-05-25T16:43:14;10.30;;;5.00;;
51010;SDS011;37038;50.182;8.624;2023-05-25T16:46:04;10.32;;;5.53;;
51010;SDS011;37038;50.182;8.624;2023-05-25T16:48:55;7.50;;;5.10;;
51010;SDS011;37038;50.182;8.624;2023-05-25T16:51:44;7.13;;;4.40;;
51010;SDS011;37038;50.182;8.624;2023-05-25T16:54:35;7.93;;;5.13;;
51010;SDS011;37038;50.182;8.624;2023-05-25T16:57:25;7.80;;;4.65;;
51010;SDS011;37038;50.182;8.624;2023-05-25T17:00:14;6.88;;;4.88;;
51010;SDS011;37038;50.182;8.624;2023-05-25T17:03:03;5.35;;;4.30;;
51010;SDS011;37038;50.182;8.624;2023-05-25T17:05:54;9.48;;;4.82;;
51010;SDS011;37038;50.182;8.624;2023-05-25T17:08:42;9.95;;;5.43;;
51010;SDS011;37038;50.182;8.624;2023-05-25T17:11:32;10.90;;;4.72;;
51010;SDS011;37038;50.182;8.624;2023-05-25T17:14:22;6.88;;;4.28;;
51010;SDS011;37038;50.182;8.624;2023-05-25T17:17:10;7.35;;;4.72;;
51010;SDS011;37038;50.182;8.624;2023-05-25T17:19:58;6.07;;;4.20;;
51010;SDS011;37038;50.182;8.624;2023-05-25T17:22:45;8.40;;;5.00;;
51010;SDS011;37038;50.182;8.624;2023-05-25T17:25:34;8.35;;;4.65;;